Alma, CO (80420)

7:25 PM MDT on July 23, 2016 (GMT -0600)
Placer Valley, Park County | | Change Station

Elev 11056 ft 39.35 °N, 106.06 °W | Updated 8 seconds ago

Clear
Clear
61.0 °F
Feels Like 61.0 °F
N
0.2
Wind Variable Wind from NNE
Gusts 2.5 mph

Today
High -- | Low -- °F
--% Chance of Precip.
Yesterday
High -- | Low -- °F
Precip. -- in
Pressure 30.68 in
Visibility 10.0 miles
Clouds Clear
Dew Point 41 °F
Humidity 48%
Rainfall 0.00 in
Snow Depth Not available.
5:56 AM 8:24 PM
Waning Gibbous, 81% visible
METAR KCCU 240116Z AUTO 31013G20KT 10SM CLR 16/00 A3068 RMK AO2 LTG DSNT E AND SE
Pressure 30.68 in
Visibility 10.0 miles
Clouds Clear
Dew Point 41 °F
Humidity 48%
Rainfall 0.00 in
Snow Depth Not available.
5:56 AM 8:24 PM
Waning Gibbous, 81% visible
METAR KCCU 240116Z AUTO 31013G20KT 10SM CLR 16/00 A3068 RMK AO2 LTG DSNT E AND SE

10-Day Weather Forecast

Almanac

Astronomy

Jul. 23, 2016 Rise Set
Actual Time
Civil Twilight
Nautical Twilight
Astronomical Twilight
Moon
Length of Visible Light
Length of Day
Tomorrow will be .
, % of the Moon is Illuminated

Today's Extremes

State Highs State Lows

Community

WunderPhotos

Upload Photos

1,926,993 photos uploaded!

WunderBlog® & News

Nearby

Air Quality

  Air Quality AQ Index Pollutant
Not available.

Snow Depth

Station Depth Elevation

Earthquake Activity

City Distance Mag. Time & Date
Minimum magnitude displayed is 2.5.

Coastal Water Temperatures

Place Temperature

Stations

Nearby Weather Stations

Station Location Temp. Windchill Dew Point Humidity Wind Precip. Elev Updated Type
                   

Watches & Warnings

There are currently no watches in effect.